Time;durP1;ratioP1;P1;durP2;ratioP2;P2;SDS_P1;SDS_P2;PMS_P1;PMS_P2;Temp;Humidity;BMP_temperature;BMP_pressure;BME280_temperature;BME280_humidity;BME280_pressure;Samples;Min_cycle;Max_cycle;Signal;HPM_P1;HPM_P2
2023/10/17 00:00:51;;;;;;;;;;;;;;;;;;5075959;28;20375;-69
2023/10/17 00:03:17;;;;;;;;;;;;;;;;;;5076044;28;19904;-69
2023/10/17 00:05:43;;;;;;;;;;;;;;;;;;5093712;28;19989;-69
2023/10/17 00:08:09;;;;;;;;;;;;;;;;;;5094082;28;20423;-69
2023/10/17 00:10:35;;;;;;;;;;;;;;;;;;5093974;28;19904;-69
2023/10/17 00:15:53;;;;;;;;;;;;;;;;;;5062213;28;19923;-68
2023/10/17 00:18:20;;;;;;;;;;;;;;;;;;5093610;28;19904;-69
2023/10/17 00:20:50;;;;;;;;;;;;;;;;;;5093875;28;19910;-68
2023/10/17 00:23:20;;;;;;;;;;;;;;;;;;5075793;28;20359;-69
2023/10/17 00:25:46;;;;;;;;;;;;;;;;;;5093649;28;19912;-69
2023/10/17 00:28:20;;;;;;;;;;;;;;;;;;5075734;28;19908;-69
2023/10/17 00:30:48;;;;;;;;;;;;;;;;;;5093823;28;19904;-69
2023/10/17 00:33:15;;;;;;;;;;;;;;;;;;5093364;28;19904;-69
2023/10/17 00:35:43;;;;;;;;;;;;;;;;;;5093701;28;20348;-69
2023/10/17 00:38:09;;;;;;;;;;;;;;;;;;5096346;28;20310;-69
2023/10/17 00:40:35;;;;;;;;;;;;;;;;;;5097721;28;19911;-69
2023/10/17 00:43:04;;;;;;;;;;;;;;;;;;5097801;28;19998;-69
2023/10/17 00:45:32;;;;;;;;;;;;;;;;;;5097725;28;19998;-68
2023/10/17 00:47:58;;;;;;;;;;;;;;;;;;5097305;28;19911;-68
2023/10/17 00:50:24;;;;;;;;;;;;;;;;;;5097729;28;20272;-68
2023/10/17 00:52:50;;;;;;;;;;;;;;;;;;5097644;28;20267;-69
2023/10/17 00:55:18;;;;;;;;;;;;;;;;;;5096976;28;19904;-69
2023/10/17 00:57:45;;;;;;;;;;;;;;;;;;5097757;28;19954;-69
2023/10/17 01:00:23;;;;;;;;;;;;;;;;;;5097472;28;19904;-69
2023/10/17 01:11:08;;;;;;;;;;;;;;;;;;5097273;28;19911;-69
2023/10/17 01:13:37;;;;;;;;;;;;;;;;;;5097412;28;19904;-69
2023/10/17 01:16:07;;;;;;;;;;;;;;;;;;5096647;28;19920;-69
2023/10/17 01:18:34;;;;;;;;;;;;;;;;;;5097151;28;19904;-69
2023/10/17 01:21:00;;;;;;;;;;;;;;;;;;5078927;28;20347;-69
2023/10/17 01:23:29;;;;;;;;;;;;;;;;;;5096664;28;19942;-69
2023/10/17 01:25:56;;;;;;;;;;;;;;;;;;5097016;28;19927;-69
2023/10/17 01:28:22;;;;;;;;;;;;;;;;;;5096951;28;19904;-68
2023/10/17 01:30:52;;;;;;;;;;;;;;;;;;5096478;28;20271;-69
2023/10/17 01:33:18;;;;;;;;;;;;;;;;;;5097442;28;20352;-69
2023/10/17 01:35:45;;;;;;;;;;;;;;;;;;5078141;28;19919;-69
2023/10/17 01:38:13;;;;;;;;;;;;;;;;;;5096740;28;19904;-69
2023/10/17 01:40:39;;;;;;;;;;;;;;;;;;5097051;28;19904;-69
2023/10/17 01:43:05;;;;;;;;;;;;;;;;;;5078155;28;19908;-69
2023/10/17 01:45:37;;;;;;;;;;;;;;;;;;5096695;28;19935;-69
2023/10/17 01:48:03;;;;;;;;;;;;;;;;;;5096145;28;19912;-69
2023/10/17 01:50:29;;;;;;;;;;;;;;;;;;5096099;28;19908;-69
2023/10/17 01:52:59;;;;;;;;;;;;;;;;;;5096562;28;19944;-69
2023/10/17 01:55:27;;;;;;;;;;;;;;;;;;5096374;28;20021;-69
2023/10/17 01:57:59;;;;;;;;;;;;;;;;;;5095997;28;19908;-68
2023/10/17 02:03:00;;;;;;;;;;;;;;;;;;5096274;28;19949;-69
2023/10/17 02:05:26;;;;;;;;;;;;;;;;;;5077760;28;19904;-70
2023/10/17 02:07:54;;;;;;;;;;;;;;;;;;5096202;28;19908;-69
2023/10/17 02:10:28;;;;;;;;;;;;;;;;;;5078023;28;20261;-70
2023/10/17 02:12:54;;;;;;;;;;;;;;;;;;5077593;28;19904;-70
2023/10/17 02:15:23;;;;;;;;;;;;;;;;;;5095869;28;19923;-70
2023/10/17 02:17:50;;;;;;;;;;;;;;;;;;5095924;28;19908;-70
2023/10/17 02:22:55;;;;;;;;;;;;;;;;;;5096316;28;19911;-70
2023/10/17 02:25:21;;;;;;;;;;;;;;;;;;5095533;28;19911;-70
2023/10/17 02:27:47;;;;;;;;;;;;;;;;;;5095831;28;19904;-70
2023/10/17 02:30:14;;;;;;;;;;;;;;;;;;5095791;28;19904;-70
2023/10/17 02:32:52;;;;;;;;;;;;;;;;;;5095382;28;20012;-70
2023/10/17 02:35:18;;;;;;;;;;;;;;;;;;5095754;28;19904;-68
2023/10/17 02:37:44;;;;;;;;;;;;;;;;;;5095657;28;19908;-70
2023/10/17 02:40:12;;;;;;;;;;;;;;;;;;5095214;28;20368;-70
2023/10/17 02:42:38;;;;;;;;;;;;;;;;;;5095559;28;19957;-70
2023/10/17 02:45:07;;;;;;;;;;;;;;;;;;5095509;28;19904;-70
2023/10/17 02:47:34;;;;;;;;;;;;;;;;;;5076837;28;19908;-69
2023/10/17 02:50:19;;;;;;;;;;;;;;;;;;5095433;28;19904;-69
2023/10/17 02:52:51;;;;;;;;;;;;;;;;;;5077230;28;19904;-70
2023/10/17 02:55:23;;;;;;;;;;;;;;;;;;5094847;28;19950;-69
2023/10/17 02:57:50;;;;;;;;;;;;;;;;;;5095253;28;19908;-68
2023/10/17 03:00:33;;;;;;;;;;;;;;;;;;5093946;28;19908;-69
2023/10/17 03:02:59;;;;;;;;;;;;;;;;;;5095156;28;19961;-69
2023/10/17 03:05:27;;;;;;;;;;;;;;;;;;5095044;28;19904;-69
2023/10/17 03:07:53;;;;;;;;;;;;;;;;;;5094624;28;19914;-69
2023/10/17 03:10:36;;;;;;;;;;;;;;;;;;5094966;28;19929;-70
2023/10/17 03:13:05;;;;;;;;;;;;;;;;;;5095282;28;20010;-71
2023/10/17 03:15:34;;;;;;;;;;;;;;;;;;5094248;28;19923;-70
2023/10/17 03:18:03;;;;;;;;;;;;;;;;;;5094871;28;19907;-70
2023/10/17 03:20:41;;;;;;;;;;;;;;;;;;5094828;28;19939;-69
2023/10/17 03:23:10;;;;;;;;;;;;;;;;;;5094473;28;19904;-70
2023/10/17 03:25:39;;;;;;;;;;;;;;;;;;5094696;28;19947;-69
2023/10/17 03:28:08;;;;;;;;;;;;;;;;;;5094677;28;19912;-69
2023/10/17 03:30:34;;;;;;;;;;;;;;;;;;5094880;28;20408;-70
2023/10/17 03:35:27;;;;;;;;;;;;;;;;;;5094016;28;21833;-70
2023/10/17 03:37:56;;;;;;;;;;;;;;;;;;5076239;28;19912;-70
2023/10/17 03:40:40;;;;;;;;;;;;;;;;;;5094479;28;19915;-69
2023/10/17 03:43:12;;;;;;;;;;;;;;;;;;5076139;28;19911;-70
2023/10/17 03:45:51;;;;;;;;;;;;;;;;;;5094378;28;19904;-69
2023/10/17 03:48:20;;;;;;;;;;;;;;;;;;5094390;28;19910;-70
2023/10/17 03:53:15;;;;;;;;;;;;;;;;;;5094231;28;20004;-70
2023/10/17 03:55:42;;;;;;;;;;;;;;;;;;5094176;28;19908;-70
2023/10/17 03:58:18;;;;;;;;;;;;;;;;;;5093815;28;19919;-69
2023/10/17 04:00:45;;;;;;;;;;;;;;;;;;5094218;28;19904;-70
2023/10/17 04:03:21;;;;;;;;;;;;;;;;;;5094149;28;19933;-69
2023/10/17 04:05:49;;;;;;;;;;;;;;;;;;5094253;28;20427;-70
2023/10/17 04:08:17;;;;;;;;;;;;;;;;;;5093898;28;19939;-70
2023/10/17 04:10:51;;;;;;;;;;;;;;;;;;5092962;28;19908;-70
2023/10/17 04:13:34;;;;;;;;;;;;;;;;;;5091958;28;19904;-70
2023/10/17 04:16:00;;;;;;;;;;;;;;;;;;5091663;28;20390;-69
2023/10/17 04:18:29;;;;;;;;;;;;;;;;;;5091526;28;19904;-69
2023/10/17 04:21:12;;;;;;;;;;;;;;;;;;5073725;28;19910;-70
2023/10/17 04:23:38;;;;;;;;;;;;;;;;;;5091851;28;19915;-70
2023/10/17 04:26:06;;;;;;;;;;;;;;;;;;5091497;28;19904;-70
2023/10/17 04:28:34;;;;;;;;;;;;;;;;;;5074989;28;19999;-70
2023/10/17 04:31:00;;;;;;;;;;;;;;;;;;5093210;28;19911;-70
2023/10/17 04:33:28;;;;;;;;;;;;;;;;;;5093503;28;20367;-70
2023/10/17 04:35:55;;;;;;;;;;;;;;;;;;5093783;28;19915;-69
2023/10/17 04:41:40;;;;;;;;;;;;;;;;;;5094246;28;19968;-70
2023/10/17 04:44:05;;;;;;;;;;;;;;;;;;5093547;28;20419;-70
2023/10/17 04:46:34;;;;;;;;;;;;;;;;;;5093307;28;20008;-69
2023/10/17 04:49:06;;;;;;;;;;;;;;;;;;5093391;28;19977;-70
2023/10/17 04:51:38;;;;;;;;;;;;;;;;;;5092090;28;20154;-70
2023/10/17 04:54:16;;;;;;;;;;;;;;;;;;5073006;28;19904;-70
2023/10/17 04:56:52;;;;;;;;;;;;;;;;;;5091479;28;19916;-70
2023/10/17 04:59:28;;;;;;;;;;;;;;;;;;5091559;28;19904;-70
2023/10/17 05:02:13;;;;;;;;;;;;;;;;;;5091121;28;19904;-70
2023/10/17 05:07:27;;;;;;;;;;;;;;;;;;5093249;28;19904;-70
2023/10/17 06:18:39;;;;;;;;;;;;;;;;;;5078295;28;19918;-65
2023/10/17 06:21:18;;;;;;;;;;;;;;;;;;5055983;28;19904;-64
2023/10/17 06:34:14;;;;;;;461.13;238.13;;;;;;;;;;5086589;28;20476;-64
2023/10/17 06:36:41;;;;;;;;;;;;;;;;;;5084769;28;20032;-64
2023/10/17 06:39:17;;;;;;;;;;;;;;;;;;5083299;28;19915;-64
2023/10/17 06:41:44;;;;;;;540.92;258.00;;;;;;;;;;5090077;28;19908;-64
2023/10/17 06:44:12;;;;;;;266.23;177.88;;;;;;;;;;5091090;28;20048;-64
2023/10/17 06:46:48;;;;;;;364.60;199.80;;;;;;;;;;5091987;28;20492;-64
2023/10/17 06:49:30;;;;;;;;;;;;;;;;;;5091313;28;20024;-64
2023/10/17 06:54:40;;;;;;;;;;;;;;;;;;5081299;28;19911;-65
2023/10/17 06:57:19;;;;;;;479.08;235.45;;;;;;;;;;5072523;28;20430;-65
2023/10/17 06:59:45;;;;;;;;;;;;;;;;;;5086890;28;20020;-64
2023/10/17 07:04:56;;;;;;;;;;;;;;;;;;5090359;28;19914;-65
2023/10/17 07:07:23;;;;;;;;;;;;;;;;;;5091588;28;19907;-66
2023/10/17 07:10:16;;;;;;;;;;;;;;;;;;5085286;28;20381;-65
2023/10/17 07:12:40;;;;;;;;;;;;;;;;;;5090881;28;19959;-66
2023/10/17 07:15:18;;;;;;;;;;;;;;;;;;5068446;28;19916;-64
2023/10/17 07:17:49;;;;;;;;;;;;;;;;;;5086141;28;20010;-64
2023/10/17 07:20:29;;;;;;;;;;;;;;;;;;5088429;28;19912;-65
2023/10/17 07:22:57;;;;;;;;;;;;;;;;;;5069029;28;19912;-64
2023/10/17 07:25:23;;;;;;;;;;;;;;;;;;5081261;28;20399;-64
2023/10/17 07:27:52;;;;;;;;;;;;;;;;;;5086041;28;19920;-62
2023/10/17 07:33:18;;;;;;;;;;;;;;;;;;5052646;28;19912;-64
2023/10/17 07:35:44;;;;;;;;;;;;;;;;;;5087851;28;19928;-65
2023/10/17 07:38:14;;;;;;;;;;;;;;;;;;5090293;28;19958;-63
2023/10/17 07:43:07;;;;;;;;;;;;;;;;;;5082375;28;20430;-64
2023/10/17 07:45:39;;;;;;;;;;;;;;;;;;5090507;28;20284;-64
2023/10/17 07:48:19;;;;;;;;;;;;;;;;;;5095109;28;19965;-62
2023/10/17 07:50:45;;;;;;;;;;;;;;;;;;5091670;28;20011;-65
2023/10/17 07:53:11;;;;;;;;;;;;;;;;;;5087184;28;19991;-65
2023/10/17 07:55:38;;;;;;;;;;;;;;;;;;5068765;28;19920;-64
2023/10/17 07:58:06;;;;;;;;;;;;;;;;;;5083323;28;19916;-65
2023/10/17 08:00:36;;;;;;;293.63;192.33;;;;;;;;;;5082243;28;19965;-64
2023/10/17 08:03:08;;;;;;;;;;;;;;;;;;5086627;28;20113;-63
2023/10/17 08:05:37;;;;;;;;;;;;;;;;;;5088912;28;19915;-64
2023/10/17 08:08:13;;;;;;;;;;;;;;;;;;5090156;28;19915;-64
2023/10/17 08:10:39;;;;;;;;;;;;;;;;;;5089374;28;19998;-65
2023/10/17 08:13:07;;;;;;;;;;;;;;;;;;5083410;28;20318;-63
2023/10/17 08:15:43;;;;;;;;;;;;;;;;;;5093607;28;19922;-64
2023/10/17 08:18:15;;;;;;;;;;;;;;;;;;5093380;28;20452;-64
2023/10/17 08:21:07;;;;;;;;;;;;;;;;;;5088844;28;19905;-63
2023/10/17 08:23:40;;;;;;;;;;;;;;;;;;5052567;28;19912;-64
2023/10/17 08:26:11;;;;;;;445.23;234.82;;;;;;;;;;5083429;28;20398;-65
2023/10/17 08:28:46;;;;;;;;;;;;;;;;;;5092041;28;20020;-65
2023/10/17 08:31:24;;;;;;;;;;;;;;;;;;5092577;28;19929;-63
2023/10/17 08:34:24;;;;;;;;;;;;;;;;;;5086695;28;19923;-66
2023/10/17 08:36:48;;;;;;;;;;;;;;;;;;5087396;28;19953;-66
2023/10/17 08:42:00;;;;;;;;;;;;;;;;;;5085465;28;19912;-64
2023/10/17 08:44:28;;;;;;;;;;;;;;;;;;5065592;28;20291;-64
2023/10/17 08:46:54;;;;;;;;;;;;;;;;;;5088893;28;19909;-64
2023/10/17 08:49:21;;;;;;;;;;;;;;;;;;5094957;28;19930;-63
2023/10/17 08:51:47;;;;;;;;;;;;;;;;;;5087798;28;19914;-64
2023/10/17 08:54:13;;;;;;;;;;;;;;;;;;5101091;28;19904;-64
2023/10/17 08:56:39;;;;;;;;;;;;;;;;;;5090832;28;19919;-66
2023/10/17 08:59:05;;;;;;;;;;;;;;;;;;5083440;28;20287;-67
2023/10/17 09:01:31;;;;;;;;;;;;;;;;;;5074744;28;19912;-66
2023/10/17 09:04:02;;;;;;;;;;;;;;;;;;5094497;28;19916;-67
2023/10/17 09:06:28;;;;;;;;;;;;;;;;;;5077569;28;19908;-67
2023/10/17 09:09:17;;;;;;;;;;;;;;;;;;5094879;28;19923;-68
2023/10/17 09:12:01;;;;;;;;;;;;;;;;;;5077695;28;19915;-68
2023/10/17 09:14:29;;;;;;;;;;;;;;;;;;5076879;28;19942;-67
2023/10/17 09:17:00;;;;;;;;;;;;;;;;;;5096126;28;20379;-67
2023/10/17 09:19:26;;;;;;;;;;;;;;;;;;5099762;28;19912;-68
2023/10/17 09:21:53;;;;;;;;;;;;;;;;;;5104606;28;19939;-66
2023/10/17 09:24:19;;;;;;;;;;;;;;;;;;5077878;28;19904;-68
2023/10/17 09:26:46;;;;;;;;;;;;;;;;;;5095905;28;19911;-65
2023/10/17 09:29:12;;;;;;;;;;;;;;;;;;5093813;28;19904;-69
2023/10/17 09:31:38;;;;;;;;;;;;;;;;;;5093874;28;20375;-66
2023/10/17 09:34:04;;;;;;;;;;;;;;;;;;5089207;28;19941;-66
2023/10/17 09:36:30;;;;;;;;;;;;;;;;;;5102093;28;20310;-68
2023/10/17 09:38:57;;;;;;;;;;;;;;;;;;5093982;28;19915;-67
2023/10/17 09:41:23;;;;;;;;;;;;;;;;;;5094251;28;19998;-66
2023/10/17 09:43:49;;;;;;;;;;;;;;;;;;5076523;28;20019;-67
2023/10/17 09:46:16;;;;;;;247.50;184.63;;;;;;;;;;5088911;28;20379;-67
2023/10/17 09:48:42;;;;;;;;;;;;;;;;;;5093133;28;20403;-67
2023/10/17 09:51:08;;;;;;;;;;;;;;;;;;5093485;28;19995;-65
2023/10/17 09:53:35;;;;;;;;;;;;;;;;;;5075378;28;19919;-65
2023/10/17 09:56:01;;;;;;;;;;;;;;;;;;5093789;28;19912;-66
2023/10/17 09:58:30;;;;;;;;;;;;;;;;;;5091880;28;20010;-69
2023/10/17 10:00:56;;;;;;;;;;;;;;;;;;5090215;28;19908;-67
2023/10/17 10:03:22;;;;;;;;;;;;;;;;;;5092283;28;19911;-67
2023/10/17 10:05:48;;;;;;;;;;;;;;;;;;5094096;28;19908;-68
2023/10/17 10:08:14;;;;;;;;;;;;;;;;;;5093160;28;19919;-69
2023/10/17 10:10:40;;;;;;;;;;;;;;;;;;5093712;28;20375;-67
2023/10/17 10:13:08;;;;;;;;;;;;;;;;;;5093829;28;20319;-72
2023/10/17 10:15:34;;;;;;;;;;;;;;;;;;5091965;28;20386;-69
2023/10/17 10:18:00;;;;;;;;;;;;;;;;;;5092626;28;19904;-67
2023/10/17 10:20:26;;;;;;;;;;;;;;;;;;5092416;28;19914;-69
2023/10/17 10:22:52;;;;;;;;;;;;;;;;;;5092379;28;20378;-67
2023/10/17 10:25:18;;;;;;;;;;;;;;;;;;5091985;28;19919;-66
2023/10/17 10:27:46;;;;;;;;;;;;;;;;;;5087187;28;19998;-66
2023/10/17 10:30:13;;;;;;;;;;;;;;;;;;5091523;28;19912;-62
2023/10/17 10:32:40;;;;;;;;;;;;;;;;;;5071962;28;19908;-62
2023/10/17 10:35:06;;;;;;;;;;;;;;;;;;5070928;28;20360;-61
2023/10/17 10:37:32;;;;;;;;;;;;;;;;;;5088102;28;19950;-62
2023/10/17 10:39:58;;;;;;;;;;;;;;;;;;5087576;28;19908;-64
2023/10/17 10:42:24;;;;;;;;;;;;;;;;;;5089285;28;20320;-64
2023/10/17 10:44:50;;;;;;;;;;;;;;;;;;5089447;28;20327;-72
2023/10/17 10:47:16;;;;;;;;;;;;;;;;;;5080116;28;20421;-68
2023/10/17 10:49:42;;;;;;;;;;;;;;;;;;5092058;28;20452;-69
2023/10/17 10:52:08;;;;;;;;;;;;;;;;;;5092157;28;19908;-72
2023/10/17 10:54:34;;;;;;;;;;;;;;;;;;5091706;28;19908;-70
2023/10/17 10:57:00;;;;;;;;;;;;;;;;;;5093288;28;20318;-68
2023/10/17 10:59:26;;;;;;;;;;;;;;;;;;5075264;28;20407;-66
2023/10/17 11:01:52;;;;;;;;;;;;;;;;;;5089948;28;19931;-65
2023/10/17 11:04:18;;;;;;;;;;;;;;;;;;5077078;28;19961;-69
2023/10/17 11:06:45;;;;;;;;;;;;;;;;;;5091882;28;20333;-68
2023/10/17 11:09:17;;;;;;;;;;;;;;;;;;5089862;28;19908;-69
2023/10/17 11:11:43;;;;;;;;;;;;;;;;;;5091934;28;20435;-68
2023/10/17 11:14:08;;;;;;;;;;;;;;;;;;5070629;28;19998;-69
2023/10/17 11:16:36;;;;;;;;;;;;;;;;;;5075232;28;19916;-69
2023/10/17 11:19:02;;;;;;;;;;;;;;;;;;5077900;28;19912;-68
2023/10/17 11:21:28;;;;;;;;;;;;;;;;;;5080435;28;20371;-69
2023/10/17 11:23:54;;;;;;;;;;;;;;;;;;5084419;28;20348;-69
2023/10/17 11:26:21;;;;;;;;;;;;;;;;;;5091577;28;19908;-66
2023/10/17 11:28:47;;;;;;;;;;;;;;;;;;5091981;28;19961;-66
2023/10/17 11:31:13;;;;;;;;;;;;;;;;;;5092719;28;19919;-66
2023/10/17 11:33:47;;;;;;;;;;;;;;;;;;5092695;28;20442;-66
2023/10/17 11:36:21;;;;;;;;;;;;;;;;;;5092146;28;19919;-66
2023/10/17 11:38:46;;;;;;;;;;;;;;;;;;5090566;28;20417;-66
2023/10/17 11:41:17;;;;;;;;;;;;;;;;;;5089276;28;19912;-67
2023/10/17 11:43:53;;;;;;;;;;;;;;;;;;5089310;28;19934;-67
2023/10/17 11:46:20;;;;;;;;;;;;;;;;;;5071426;28;20011;-66
2023/10/17 11:48:54;;;;;;;;;;;;;;;;;;5088220;28;19969;-65
2023/10/17 11:51:20;;;;;;;;;;;;;;;;;;5090420;28;19908;-67
2023/10/17 11:53:45;;;;;;;;;;;;;;;;;;5092900;28;20383;-68
2023/10/17 11:56:14;;;;;;;;;;;;;;;;;;5092806;28;19916;-66
2023/10/17 11:58:40;;;;;;;;;;;;;;;;;;5092813;28;19953;-68
2023/10/17 12:01:06;;;;;;;;;;;;;;;;;;5091696;28;20314;-66
2023/10/17 12:03:31;;;;;;;;;;;;;;;;;;5092797;28;20264;-68
2023/10/17 12:06:00;;;;;;;;;;;;;;;;;;5092444;28;20272;-68
2023/10/17 12:08:29;;;;;;;;;;;;;;;;;;5093355;28;19904;-67
2023/10/17 12:10:55;;;;;;;;;;;;;;;;;;5092880;28;20357;-67
2023/10/17 12:13:21;;;;;;;;;;;;;;;;;;5074749;28;19919;-68
2023/10/17 12:15:47;;;;;;;;;;;;;;;;;;5092603;28;20413;-69
2023/10/17 12:18:13;;;;;;;;;;;;;;;;;;5074936;28;19955;-68
2023/10/17 12:20:42;;;;;;;;;;;;;;;;;;5092483;28;19908;-65
2023/10/17 12:23:09;;;;;;;;;;;;;;;;;;5092593;28;20380;-64
2023/10/17 12:25:36;;;;;;;;;;;;;;;;;;5074140;28;19919;-66
2023/10/17 12:28:02;;;;;;;;;;;;;;;;;;5091440;28;19958;-68
2023/10/17 12:30:35;;;;;;;;;;;;;;;;;;5091418;28;19904;-68
2023/10/17 12:33:08;;;;;;;;;;;;;;;;;;5088055;28;19908;-69
2023/10/17 12:35:34;;;;;;;;;;;;;;;;;;5075925;28;19911;-68
2023/10/17 12:38:14;;;;;;;;;;;;;;;;;;5073941;28;19904;-69
2023/10/17 12:40:40;;;;;;;;;;;;;;;;;;5094270;28;19908;-71
2023/10/17 12:43:08;;;;;;;;;;;;;;;;;;5075633;28;20252;-70
2023/10/17 12:45:36;;;;;;;;;;;;;;;;;;5090701;28;19985;-69
2023/10/17 12:48:02;;;;;;;;;;;;;;;;;;5083509;28;19908;-68
2023/10/17 12:50:29;;;;;;;;;;;;;;;;;;5088224;28;19915;-69
2023/10/17 12:52:55;;;;;;;;;;;;;;;;;;5093077;28;19904;-69
2023/10/17 12:55:21;;;;;;;;;;;;;;;;;;5092506;28;19936;-69
2023/10/17 12:57:47;;;;;;;;;;;;;;;;;;5092491;28;19919;-69
2023/10/17 13:00:14;;;;;;;;;;;;;;;;;;5074430;28;19908;-69
2023/10/17 13:02:40;;;;;;;;;;;;;;;;;;5074685;28;19904;-69
2023/10/17 13:05:07;;;;;;;;;;;;;;;;;;5092151;28;19918;-69
2023/10/17 13:07:33;;;;;;;;;;;;;;;;;;5094293;28;19908;-69
2023/10/17 13:09:59;;;;;;;296.83;197.65;;;;;;;;;;5095359;28;19908;-69
2023/10/17 13:12:25;;;;;;;;;;;;;;;;;;5077689;28;20032;-69
2023/10/17 13:14:51;;;;;;;;;;;;;;;;;;5095489;28;19904;-68
2023/10/17 13:17:18;;;;;;;;;;;;;;;;;;5095742;28;19957;-69
2023/10/17 13:19:48;;;;;;;;;;;;;;;;;;5096735;28;19904;-69
2023/10/17 13:22:17;;;;;;;;;;;;;;;;;;5097004;28;19904;-69
2023/10/17 13:24:45;;;;;;;;;;;;;;;;;;5096990;28;20337;-69
2023/10/17 13:27:11;;;;;;;;;;;;;;;;;;5096921;28;19904;-69
2023/10/17 13:29:37;;;;;;;;;;;;;;;;;;5096883;28;19957;-69
2023/10/17 13:32:07;;;;;;;;;;;;;;;;;;5096911;28;19938;-69
2023/10/17 13:34:33;;;;;;;;;;;;;;;;;;5078293;28;19912;-69
2023/10/17 13:36:59;;;;;;;;;;;;;;;;;;5096785;28;19916;-69
2023/10/17 13:39:25;;;;;;;;;;;;;;;;;;5096690;28;19998;-69
2023/10/17 13:41:51;;;;;;;;;;;;;;;;;;5078028;28;19911;-69
2023/10/17 13:44:17;;;;;;;;;;;;;;;;;;5095874;28;19904;-69
2023/10/17 13:46:43;;;;;;;;;;;;;;;;;;5096653;28;19998;-69
2023/10/17 13:49:09;;;;;;;;;;;;;;;;;;5078035;28;19943;-69
2023/10/17 13:51:34;;;;;;;;;;;;;;;;;;5096543;28;19911;-69
2023/10/17 13:54:00;;;;;;;;;;;;;;;;;;5096487;28;20375;-69
2023/10/17 13:56:27;;;;;;;;;;;;;;;;;;5095938;28;20368;-69
2023/10/17 13:58:53;;;;;;;;;;;;;;;;;;5096354;28;20462;-69
2023/10/17 14:03:57;;;;;;;;;;;;;;;;;;5096280;28;19911;-69
2023/10/17 14:06:23;;;;;;;;;;;;;;;;;;5096152;28;19908;-69
2023/10/17 14:08:50;;;;;;;;;;;;;;;;;;5077634;28;19927;-69
2023/10/17 14:11:19;;;;;;;;;;;;;;;;;;5096232;28;19904;-69
2023/10/17 14:13:45;;;;;;;;;;;;;;;;;;5096183;28;19904;-69
2023/10/17 14:16:11;;;;;;;;;;;;;;;;;;5095349;28;19922;-69
2023/10/17 14:21:40;;;;;;;438.73;242.85;;;;;;;;;;5095438;28;20389;-69
2023/10/17 14:24:27;;;;;;;;;;;;;;;;;;5095425;28;20016;-69
2023/10/17 14:26:53;;;;;;;;;;;;;;;;;;5095932;28;19915;-69
2023/10/17 14:29:20;;;;;;;;;;;;;;;;;;5095404;28;20287;-69
2023/10/17 14:31:46;;;;;;;;;;;;;;;;;;5095808;28;19904;-69
2023/10/17 14:34:12;;;;;;;;;;;;;;;;;;5095697;28;19912;-69
2023/10/17 14:36:38;;;;;;;;;;;;;;;;;;5095153;28;19939;-69
2023/10/17 14:39:09;;;;;;;;;;;;;;;;;;5096092;28;19919;-69
2023/10/17 14:41:36;;;;;;;;;;;;;;;;;;5095756;28;19908;-68
2023/10/17 14:44:03;;;;;;;;;;;;;;;;;;5095104;28;20275;-69
2023/10/17 14:46:30;;;;;;;;;;;;;;;;;;5095527;28;19911;-69
2023/10/17 14:48:56;;;;;;;;;;;;;;;;;;5077358;28;19911;-69
2023/10/17 14:51:22;;;;;;;;;;;;;;;;;;5095005;28;19905;-69
2023/10/17 14:53:48;;;;;;;;;;;;;;;;;;5095387;28;20360;-69
2023/10/17 14:56:14;;;;;;;;;;;;;;;;;;5094486;28;19908;-69
2023/10/17 14:58:40;;;;;;;;;;;;;;;;;;5094883;28;19914;-69
2023/10/17 15:01:06;;;;;;;;;;;;;;;;;;5095275;28;19911;-69
2023/10/17 15:03:32;;;;;;;;;;;;;;;;;;5077019;28;19908;-69
2023/10/17 15:05:59;;;;;;;;;;;;;;;;;;5094902;28;19946;-68
2023/10/17 15:08:25;;;;;;;;;;;;;;;;;;5076945;28;20262;-69
2023/10/17 15:10:51;;;;;;;;;;;;;;;;;;5076849;28;19904;-69
2023/10/17 15:13:17;;;;;;;;;;;;;;;;;;5076410;28;20429;-69
2023/10/17 15:15:43;;;;;;;;;;;;;;;;;;5094723;28;19919;-68
2023/10/17 15:18:09;;;;;;;;;;;;;;;;;;5095339;28;20264;-69
2023/10/17 15:20:35;;;;;;;;;;;;;;;;;;5094499;28;20314;-69
2023/10/17 15:23:01;;;;;;;;;;;;;;;;;;5094763;28;19931;-69
2023/10/17 15:25:27;;;;;;;;;;;;;;;;;;5076548;28;19927;-68
2023/10/17 15:27:56;;;;;;;;;;;;;;;;;;5094312;28;19904;-68
2023/10/17 15:30:23;;;;;;;;;;;;;;;;;;5094701;28;19926;-69
2023/10/17 15:32:49;;;;;;;;;;;;;;;;;;5076029;28;19911;-69
2023/10/17 15:35:14;;;;;;;;;;;;;;;;;;5094594;28;19930;-69
2023/10/17 15:37:47;;;;;;;;;;;;;;;;;;5094533;28;20283;-69
2023/10/17 15:40:16;;;;;;;;;;;;;;;;;;5094210;28;19915;-69
2023/10/17 15:42:43;;;;;;;;;;;;;;;;;;5094525;28;19904;-69
2023/10/17 15:45:09;;;;;;;;;;;;;;;;;;5094471;28;19904;-68
2023/10/17 15:47:38;;;;;;;;;;;;;;;;;;5094026;28;19930;-69
2023/10/17 15:50:04;;;;;;;;;;;;;;;;;;5076252;28;19904;-69
2023/10/17 15:52:30;;;;;;;;;;;;;;;;;;5094493;28;19947;-69
2023/10/17 15:54:56;;;;;;;;;;;;;;;;;;5093953;28;19911;-68
2023/10/17 15:57:23;;;;;;;;;;;;;;;;;;5094234;28;19916;-68
2023/10/17 15:59:50;;;;;;;;;;;;;;;;;;5094259;28;19948;-68
2023/10/17 16:02:15;;;;;;;;;;;;;;;;;;5093872;28;19904;-69
2023/10/17 16:04:41;;;;;;;;;;;;;;;;;;5094191;28;20391;-69
2023/10/17 16:07:11;;;;;;;;;;;;;;;;;;5075639;28;20253;-69
2023/10/17 16:09:39;;;;;;;;;;;;;;;;;;5093758;28;20286;-69
2023/10/17 16:12:05;;;;;;;;;;;;;;;;;;5094090;28;19904;-69
2023/10/17 16:14:31;;;;;;;;;;;;;;;;;;5094040;28;20428;-69
2023/10/17 16:16:57;;;;;;;;;;;;;;;;;;5093248;28;20014;-69
2023/10/17 16:19:25;;;;;;;;;;;;;;;;;;5093532;28;20272;-70
2023/10/17 16:21:51;;;;;;;;;;;;;;;;;;5093567;28;19961;-69
2023/10/17 16:24:17;;;;;;;;;;;;;;;;;;5094321;28;19911;-69
2023/10/17 16:26:43;;;;;;;;;;;;;;;;;;5075907;28;19912;-69
2023/10/17 16:29:09;;;;;;;;;;;;;;;;;;5093611;28;19911;-69
2023/10/17 16:31:35;;;;;;;;;;;;;;;;;;5093992;28;20003;-70
2023/10/17 16:34:01;;;;;;;;;;;;;;;;;;5094121;28;20376;-69
2023/10/17 16:36:27;;;;;;;;;;;;;;;;;;5093320;28;19919;-69
2023/10/17 16:38:53;;;;;;;;;;;;;;;;;;5093811;28;19912;-70
2023/10/17 16:41:19;;;;;;;;;;;;;;;;;;5075524;28;19915;-69
2023/10/17 16:43:45;;;;;;;;;;;;;;;;;;5075248;28;20280;-69
2023/10/17 16:46:11;;;;;;;;;;;;;;;;;;5093932;28;19957;-69
2023/10/17 16:48:37;;;;;;;;;;;;;;;;;;5093757;28;19909;-69
2023/10/17 16:51:04;;;;;;;;;;;;;;;;;;5093550;28;19919;-69
2023/10/17 16:53:30;;;;;;;;;;;;;;;;;;5093355;28;19908;-69
2023/10/17 16:55:56;;;;;;;;;;;;;;;;;;5075484;28;19908;-69
2023/10/17 16:58:22;;;;;;;;;;;;;;;;;;5093369;28;20280;-70
2023/10/17 17:00:50;;;;;;;;;;;;;;;;;;5093496;28;19908;-69
2023/10/17 17:03:16;;;;;;;;;;;;;;;;;;5093530;28;19931;-67
2023/10/17 17:05:42;;;;;;;;;;;;;;;;;;5093110;28;20368;-68
2023/10/17 17:08:09;;;;;;;;;;;;;;;;;;5093443;28;19940;-68
2023/10/17 17:10:37;;;;;;;;;;;;;;;;;;5075428;28;19915;-68
2023/10/17 17:13:03;;;;;;;;;;;;;;;;;;5093150;28;20356;-67
2023/10/17 17:15:29;;;;;;;;;;;;;;;;;;5093321;28;19916;-68
2023/10/17 17:17:55;;;;;;;;;;;;;;;;;;5093489;28;19916;-69
2023/10/17 17:20:22;;;;;;;;;;;;;;;;;;5095710;28;20270;-68
2023/10/17 17:22:47;;;;;;;;;;;;;;;;;;5097236;28;19908;-68
2023/10/17 17:25:14;;;;;;;;;;;;;;;;;;5096700;28;19908;-68
2023/10/17 17:27:40;;;;;;;;;;;;;;;;;;5097072;28;20348;-69
2023/10/17 17:30:14;;;;;;;;;;;;;;;;;;5078874;28;19908;-68
2023/10/17 17:32:40;;;;;;;;;;;;;;;;;;5096834;28;19947;-68
2023/10/17 17:35:06;;;;;;;;;;;;;;;;;;5096971;28;19908;-68
2023/10/17 17:37:33;;;;;;;;;;;;;;;;;;5096855;28;19973;-69
2023/10/17 17:39:59;;;;;;;;;;;;;;;;;;5096461;28;19918;-69
2023/10/17 17:42:25;;;;;;;;;;;;;;;;;;5096806;28;19959;-69
2023/10/17 17:44:52;;;;;;;;;;;;;;;;;;5096774;28;20427;-70
2023/10/17 17:47:18;;;;;;;;;;;;;;;;;;5096387;28;19969;-69
2023/10/17 17:49:45;;;;;;;;;;;;;;;;;;5096514;28;19912;-69
2023/10/17 17:52:11;;;;;;;;;;;;;;;;;;5096436;28;20283;-68
2023/10/17 17:54:38;;;;;;;;;;;;;;;;;;5096229;28;19914;-68
2023/10/17 17:57:05;;;;;;;;;;;;;;;;;;5096346;28;19916;-69
2023/10/17 17:59:32;;;;;;;;;;;;;;;;;;5078132;28;19913;-69
2023/10/17 18:01:59;;;;;;;;;;;;;;;;;;5095959;28;19931;-67
2023/10/17 18:04:25;;;;;;;;;;;;;;;;;;5078118;28;19915;-68
2023/10/17 18:06:51;;;;;;;;;;;;;;;;;;5078061;28;19908;-69
2023/10/17 18:09:17;;;;;;;;;;;;;;;;;;5095763;28;20007;-68
2023/10/17 18:11:42;;;;;;;;;;;;;;;;;;5096097;28;20275;-69
2023/10/17 18:14:09;;;;;;;;;;;;;;;;;;5096181;28;20337;-69
2023/10/17 18:16:35;;;;;;;;;;;;;;;;;;5077289;28;19927;-69
2023/10/17 18:19:03;;;;;;;;;;;;;;;;;;5077902;28;19990;-69
2023/10/17 18:21:29;;;;;;;;;;;;;;;;;;5077394;28;19969;-69
2023/10/17 18:23:56;;;;;;;;;;;;;;;;;;5095841;28;19908;-69
2023/10/17 18:26:21;;;;;;;;;;;;;;;;;;5095810;28;19947;-70
2023/10/17 18:28:48;;;;;;;;;;;;;;;;;;5077202;28;19955;-68
2023/10/17 18:31:14;;;;;;;;;;;;;;;;;;5095463;28;19908;-68
2023/10/17 18:33:41;;;;;;;;;;;;;;;;;;5077819;28;19915;-70
2023/10/17 18:36:08;;;;;;;;;;;;;;;;;;5095346;28;20280;-68
2023/10/17 18:38:34;;;;;;;;;;;;;;;;;;5095841;28;20352;-69
2023/10/17 18:41:00;;;;;;;;;;;;;;;;;;5095647;28;19908;-69
2023/10/17 18:43:29;;;;;;;;;;;;;;;;;;5095121;28;19908;-69
2023/10/17 18:45:55;;;;;;;;;;;;;;;;;;5095501;28;19915;-68
2023/10/17 18:48:21;;;;;;;;;;;;;;;;;;5095409;28;20044;-68
2023/10/17 18:50:48;;;;;;;;;;;;;;;;;;5095040;28;20371;-68
2023/10/17 18:53:14;;;;;;;;;;;;;;;;;;5077204;28;19908;-68